sensor_id;sensor_type;location;lat;lon;timestamp;P1;durP1;ratioP1;P2;durP2;ratioP2
24745;SDS011;12845;52.042;6.838;2023-07-13T00:01:24;9.20;;;2.92;;
24745;SDS011;12845;52.042;6.838;2023-07-13T00:03:50;10.32;;;2.88;;
24745;SDS011;12845;52.042;6.838;2023-07-13T00:06:15;9.15;;;2.63;;
24745;SDS011;12845;52.042;6.838;2023-07-13T00:08:41;7.95;;;2.70;;
24745;SDS011;12845;52.042;6.838;2023-07-13T00:11:06;8.25;;;2.60;;
24745;SDS011;12845;52.042;6.838;2023-07-13T00:13:32;8.93;;;3.10;;
24745;SDS011;12845;52.042;6.838;2023-07-13T00:15:57;6.13;;;2.35;;
24745;SDS011;12845;52.042;6.838;2023-07-13T00:18:23;7.68;;;2.72;;
24745;SDS011;12845;52.042;6.838;2023-07-13T00:20:49;6.53;;;2.50;;
24745;SDS011;12845;52.042;6.838;2023-07-13T00:23:14;12.63;;;2.95;;
24745;SDS011;12845;52.042;6.838;2023-07-13T00:25:40;13.63;;;3.42;;
24745;SDS011;12845;52.042;6.838;2023-07-13T00:28:05;11.82;;;3.75;;
24745;SDS011;12845;52.042;6.838;2023-07-13T00:30:30;12.55;;;3.17;;
24745;SDS011;12845;52.042;6.838;2023-07-13T00:32:56;7.95;;;3.15;;
24745;SDS011;12845;52.042;6.838;2023-07-13T00:35:22;13.07;;;3.38;;
24745;SDS011;12845;52.042;6.838;2023-07-13T00:37:48;11.93;;;3.20;;
24745;SDS011;12845;52.042;6.838;2023-07-13T00:40:15;10.60;;;3.13;;
24745;SDS011;12845;52.042;6.838;2023-07-13T00:42:41;12.82;;;3.72;;
24745;SDS011;12845;52.042;6.838;2023-07-13T00:47:38;10.77;;;3.83;;
24745;SDS011;12845;52.042;6.838;2023-07-13T00:50:09;10.02;;;3.80;;
24745;SDS011;12845;52.042;6.838;2023-07-13T00:52:37;12.18;;;3.83;;
24745;SDS011;12845;52.042;6.838;2023-07-13T00:55:08;11.20;;;3.70;;
24745;SDS011;12845;52.042;6.838;2023-07-13T00:57:34;17.83;;;4.85;;
24745;SDS011;12845;52.042;6.838;2023-07-13T01:00:00;10.10;;;4.72;;
24745;SDS011;12845;52.042;6.838;2023-07-13T01:02:30;9.35;;;4.07;;
24745;SDS011;12845;52.042;6.838;2023-07-13T01:04:55;10.63;;;3.22;;
24745;SDS011;12845;52.042;6.838;2023-07-13T01:07:21;9.00;;;2.97;;
24745;SDS011;12845;52.042;6.838;2023-07-13T01:09:47;8.35;;;2.70;;
24745;SDS011;12845;52.042;6.838;2023-07-13T01:12:12;10.95;;;2.85;;
24745;SDS011;12845;52.042;6.838;2023-07-13T01:14:38;7.60;;;2.83;;
24745;SDS011;12845;52.042;6.838;2023-07-13T01:17:04;9.70;;;2.90;;
24745;SDS011;12845;52.042;6.838;2023-07-13T01:19:35;12.18;;;2.80;;
24745;SDS011;12845;52.042;6.838;2023-07-13T01:22:03;6.18;;;2.55;;
24745;SDS011;12845;52.042;6.838;2023-07-13T01:24:41;6.65;;;2.50;;
24745;SDS011;12845;52.042;6.838;2023-07-13T01:27:08;7.18;;;2.95;;
24745;SDS011;12845;52.042;6.838;2023-07-13T01:29:35;6.90;;;2.75;;
24745;SDS011;12845;52.042;6.838;2023-07-13T01:32:10;9.20;;;2.85;;
24745;SDS011;12845;52.042;6.838;2023-07-13T01:34:49;9.50;;;3.00;;
24745;SDS011;12845;52.042;6.838;2023-07-13T01:37:19;10.57;;;3.10;;
24745;SDS011;12845;52.042;6.838;2023-07-13T01:39:46;9.30;;;3.10;;
24745;SDS011;12845;52.042;6.838;2023-07-13T01:42:12;11.60;;;3.47;;
24745;SDS011;12845;52.042;6.838;2023-07-13T01:44:37;8.13;;;3.17;;
24745;SDS011;12845;52.042;6.838;2023-07-13T01:47:03;11.70;;;3.10;;
24745;SDS011;12845;52.042;6.838;2023-07-13T01:49:28;12.48;;;3.67;;
24745;SDS011;12845;52.042;6.838;2023-07-13T01:51:54;7.50;;;3.28;;
24745;SDS011;12845;52.042;6.838;2023-07-13T01:54:19;9.15;;;3.50;;
24745;SDS011;12845;52.042;6.838;2023-07-13T01:56:44;9.55;;;3.38;;
24745;SDS011;12845;52.042;6.838;2023-07-13T01:59:10;11.05;;;3.25;;
24745;SDS011;12845;52.042;6.838;2023-07-13T02:01:35;7.47;;;2.60;;
24745;SDS011;12845;52.042;6.838;2023-07-13T02:04:00;8.13;;;2.35;;
24745;SDS011;12845;52.042;6.838;2023-07-13T02:06:26;8.77;;;2.70;;
24745;SDS011;12845;52.042;6.838;2023-07-13T02:08:51;6.63;;;2.42;;
24745;SDS011;12845;52.042;6.838;2023-07-13T02:11:17;7.28;;;2.28;;
24745;SDS011;12845;52.042;6.838;2023-07-13T02:13:42;8.50;;;2.70;;
24745;SDS011;12845;52.042;6.838;2023-07-13T02:16:08;8.70;;;3.45;;
24745;SDS011;12845;52.042;6.838;2023-07-13T02:18:33;13.75;;;4.18;;
24745;SDS011;12845;52.042;6.838;2023-07-13T02:20:59;12.48;;;4.15;;
24745;SDS011;12845;52.042;6.838;2023-07-13T02:23:24;8.63;;;3.25;;
24745;SDS011;12845;52.042;6.838;2023-07-13T02:25:54;9.85;;;3.15;;
24745;SDS011;12845;52.042;6.838;2023-07-13T02:28:23;7.82;;;2.90;;
24745;SDS011;12845;52.042;6.838;2023-07-13T02:30:48;9.93;;;3.15;;
24745;SDS011;12845;52.042;6.838;2023-07-13T02:33:14;10.80;;;3.45;;
24745;SDS011;12845;52.042;6.838;2023-07-13T02:35:39;9.18;;;3.25;;
24745;SDS011;12845;52.042;6.838;2023-07-13T02:38:04;10.23;;;3.58;;
24745;SDS011;12845;52.042;6.838;2023-07-13T02:40:30;10.90;;;3.53;;
24745;SDS011;12845;52.042;6.838;2023-07-13T02:42:58;8.48;;;3.25;;
24745;SDS011;12845;52.042;6.838;2023-07-13T02:45:23;7.65;;;3.25;;
24745;SDS011;12845;52.042;6.838;2023-07-13T02:47:49;10.43;;;3.25;;
24745;SDS011;12845;52.042;6.838;2023-07-13T02:50:14;8.38;;;2.78;;
24745;SDS011;12845;52.042;6.838;2023-07-13T02:52:39;8.20;;;3.13;;
24745;SDS011;12845;52.042;6.838;2023-07-13T02:55:05;10.43;;;3.40;;
24745;SDS011;12845;52.042;6.838;2023-07-13T02:57:31;12.48;;;4.15;;
24745;SDS011;12845;52.042;6.838;2023-07-13T02:59:57;7.28;;;3.58;;
24745;SDS011;12845;52.042;6.838;2023-07-13T03:02:23;10.43;;;3.70;;
24745;SDS011;12845;52.042;6.838;2023-07-13T03:04:48;8.15;;;3.85;;
24745;SDS011;12845;52.042;6.838;2023-07-13T03:07:14;9.15;;;3.60;;
24745;SDS011;12845;52.042;6.838;2023-07-13T03:09:40;9.68;;;3.17;;
24745;SDS011;12845;52.042;6.838;2023-07-13T03:12:06;10.70;;;3.90;;
24745;SDS011;12845;52.042;6.838;2023-07-13T03:14:31;8.73;;;3.22;;
24745;SDS011;12845;52.042;6.838;2023-07-13T03:16:57;7.60;;;4.00;;
24745;SDS011;12845;52.042;6.838;2023-07-13T03:19:22;8.80;;;3.40;;
24745;SDS011;12845;52.042;6.838;2023-07-13T03:21:48;9.60;;;3.38;;
24745;SDS011;12845;52.042;6.838;2023-07-13T03:24:13;8.80;;;3.22;;
24745;SDS011;12845;52.042;6.838;2023-07-13T03:26:38;9.85;;;3.45;;
24745;SDS011;12845;52.042;6.838;2023-07-13T03:29:04;8.30;;;3.60;;
24745;SDS011;12845;52.042;6.838;2023-07-13T03:31:32;7.95;;;2.58;;
24745;SDS011;12845;52.042;6.838;2023-07-13T03:36:25;9.95;;;3.55;;
24745;SDS011;12845;52.042;6.838;2023-07-13T03:38:54;7.28;;;2.92;;
24745;SDS011;12845;52.042;6.838;2023-07-13T03:41:22;7.30;;;2.92;;
24745;SDS011;12845;52.042;6.838;2023-07-13T03:43:48;11.85;;;2.90;;
24745;SDS011;12845;52.042;6.838;2023-07-13T03:46:13;8.27;;;3.05;;
24745;SDS011;12845;52.042;6.838;2023-07-13T03:48:40;6.15;;;3.08;;
24745;SDS011;12845;52.042;6.838;2023-07-13T03:51:08;7.68;;;2.90;;
24745;SDS011;12845;52.042;6.838;2023-07-13T03:53:35;6.28;;;2.92;;
24745;SDS011;12845;52.042;6.838;2023-07-13T03:56:03;6.32;;;2.50;;
24745;SDS011;12845;52.042;6.838;2023-07-13T03:58:30;6.95;;;2.75;;
24745;SDS011;12845;52.042;6.838;2023-07-13T04:01:05;9.38;;;3.17;;
24745;SDS011;12845;52.042;6.838;2023-07-13T04:03:32;9.90;;;2.65;;
24745;SDS011;12845;52.042;6.838;2023-07-13T04:05:59;10.23;;;2.63;;
24745;SDS011;12845;52.042;6.838;2023-07-13T04:08:26;7.68;;;2.55;;
24745;SDS011;12845;52.042;6.838;2023-07-13T04:10:53;6.47;;;2.70;;
24745;SDS011;12845;52.042;6.838;2023-07-13T04:13:18;8.63;;;2.55;;
24745;SDS011;12845;52.042;6.838;2023-07-13T04:15:44;7.72;;;2.30;;
24745;SDS011;12845;52.042;6.838;2023-07-13T04:18:09;9.38;;;3.30;;
24745;SDS011;12845;52.042;6.838;2023-07-13T04:20:34;9.00;;;2.72;;
24745;SDS011;12845;52.042;6.838;2023-07-13T04:23:00;6.40;;;2.70;;
24745;SDS011;12845;52.042;6.838;2023-07-13T04:25:25;8.75;;;2.85;;
24745;SDS011;12845;52.042;6.838;2023-07-13T04:27:52;7.15;;;2.60;;
24745;SDS011;12845;52.042;6.838;2023-07-13T04:30:18;7.60;;;2.85;;
24745;SDS011;12845;52.042;6.838;2023-07-13T04:32:44;9.48;;;2.83;;
24745;SDS011;12845;52.042;6.838;2023-07-13T04:35:10;7.95;;;3.13;;
24745;SDS011;12845;52.042;6.838;2023-07-13T04:37:35;6.95;;;2.72;;
24745;SDS011;12845;52.042;6.838;2023-07-13T04:40:01;7.25;;;2.83;;
24745;SDS011;12845;52.042;6.838;2023-07-13T04:42:26;5.57;;;2.90;;
24745;SDS011;12845;52.042;6.838;2023-07-13T04:44:52;9.07;;;2.95;;
24745;SDS011;12845;52.042;6.838;2023-07-13T04:47:17;7.13;;;2.83;;
24745;SDS011;12845;52.042;6.838;2023-07-13T04:49:43;9.48;;;2.90;;
24745;SDS011;12845;52.042;6.838;2023-07-13T04:52:09;7.97;;;2.95;;
24745;SDS011;12845;52.042;6.838;2023-07-13T04:54:34;6.88;;;3.10;;
24745;SDS011;12845;52.042;6.838;2023-07-13T04:57:00;10.25;;;3.75;;
24745;SDS011;12845;52.042;6.838;2023-07-13T04:59:26;7.60;;;3.25;;
24745;SDS011;12845;52.042;6.838;2023-07-13T05:01:51;10.02;;;3.00;;
24745;SDS011;12845;52.042;6.838;2023-07-13T05:04:17;7.18;;;2.95;;
24745;SDS011;12845;52.042;6.838;2023-07-13T05:06:42;6.05;;;2.70;;
24745;SDS011;12845;52.042;6.838;2023-07-13T05:09:08;7.28;;;2.92;;
24745;SDS011;12845;52.042;6.838;2023-07-13T05:11:33;10.50;;;3.25;;
24745;SDS011;12845;52.042;6.838;2023-07-13T05:13:59;7.25;;;3.25;;
24745;SDS011;12845;52.042;6.838;2023-07-13T05:16:26;14.93;;;3.75;;
24745;SDS011;12845;52.042;6.838;2023-07-13T05:18:52;10.23;;;3.65;;
24745;SDS011;12845;52.042;6.838;2023-07-13T05:21:18;9.32;;;2.95;;
24745;SDS011;12845;52.042;6.838;2023-07-13T05:23:43;10.32;;;3.35;;
24745;SDS011;12845;52.042;6.838;2023-07-13T05:26:08;10.32;;;3.45;;
24745;SDS011;12845;52.042;6.838;2023-07-13T05:28:34;7.93;;;3.50;;
24745;SDS011;12845;52.042;6.838;2023-07-13T05:30:59;9.25;;;3.67;;
24745;SDS011;12845;52.042;6.838;2023-07-13T05:33:25;9.77;;;3.63;;
24745;SDS011;12845;52.042;6.838;2023-07-13T05:35:52;9.85;;;3.50;;
24745;SDS011;12845;52.042;6.838;2023-07-13T05:38:17;14.07;;;4.22;;
24745;SDS011;12845;52.042;6.838;2023-07-13T05:40:43;8.25;;;3.40;;
24745;SDS011;12845;52.042;6.838;2023-07-13T05:43:09;14.07;;;3.75;;
24745;SDS011;12845;52.042;6.838;2023-07-13T05:45:35;7.40;;;3.45;;
24745;SDS011;12845;52.042;6.838;2023-07-13T05:48:00;13.27;;;3.75;;
24745;SDS011;12845;52.042;6.838;2023-07-13T05:50:26;7.97;;;3.22;;
24745;SDS011;12845;52.042;6.838;2023-07-13T05:52:52;9.15;;;4.00;;
24745;SDS011;12845;52.042;6.838;2023-07-13T05:55:17;12.88;;;3.58;;
24745;SDS011;12845;52.042;6.838;2023-07-13T05:57:43;10.50;;;3.80;;
24745;SDS011;12845;52.042;6.838;2023-07-13T06:00:09;12.50;;;3.92;;
24745;SDS011;12845;52.042;6.838;2023-07-13T06:02:35;11.05;;;4.15;;
24745;SDS011;12845;52.042;6.838;2023-07-13T06:05:00;13.18;;;4.63;;
24745;SDS011;12845;52.042;6.838;2023-07-13T06:07:26;14.23;;;4.50;;
24745;SDS011;12845;52.042;6.838;2023-07-13T06:09:51;13.13;;;4.25;;
24745;SDS011;12845;52.042;6.838;2023-07-13T06:12:16;8.73;;;4.75;;
24745;SDS011;12845;52.042;6.838;2023-07-13T06:14:42;14.07;;;4.93;;
24745;SDS011;12845;52.042;6.838;2023-07-13T06:17:07;16.60;;;5.97;;
24745;SDS011;12845;52.042;6.838;2023-07-13T06:19:33;11.10;;;5.60;;
24745;SDS011;12845;52.042;6.838;2023-07-13T06:21:59;14.68;;;6.93;;
24745;SDS011;12845;52.042;6.838;2023-07-13T06:24:25;15.65;;;6.55;;
24745;SDS011;12845;52.042;6.838;2023-07-13T06:26:50;15.02;;;7.07;;
24745;SDS011;12845;52.042;6.838;2023-07-13T06:29:16;17.40;;;7.70;;
24745;SDS011;12845;52.042;6.838;2023-07-13T06:31:41;14.40;;;7.65;;
24745;SDS011;12845;52.042;6.838;2023-07-13T06:34:07;18.65;;;7.65;;
24745;SDS011;12845;52.042;6.838;2023-07-13T06:36:33;19.73;;;7.65;;
24745;SDS011;12845;52.042;6.838;2023-07-13T06:38:58;19.75;;;8.80;;
24745;SDS011;12845;52.042;6.838;2023-07-13T06:41:24;13.70;;;7.40;;
24745;SDS011;12845;52.042;6.838;2023-07-13T06:43:51;17.67;;;8.98;;
24745;SDS011;12845;52.042;6.838;2023-07-13T06:46:19;17.75;;;8.23;;
24745;SDS011;12845;52.042;6.838;2023-07-13T06:48:48;18.77;;;10.00;;
24745;SDS011;12845;52.042;6.838;2023-07-13T06:51:13;17.00;;;8.10;;
24745;SDS011;12845;52.042;6.838;2023-07-13T06:53:39;17.05;;;8.65;;
24745;SDS011;12845;52.042;6.838;2023-07-13T06:56:05;18.55;;;8.70;;
24745;SDS011;12845;52.042;6.838;2023-07-13T06:58:30;17.23;;;9.70;;
24745;SDS011;12845;52.042;6.838;2023-07-13T07:00:56;19.17;;;9.10;;
24745;SDS011;12845;52.042;6.838;2023-07-13T07:03:22;21.83;;;10.35;;
24745;SDS011;12845;52.042;6.838;2023-07-13T07:05:47;16.27;;;9.20;;
24745;SDS011;12845;52.042;6.838;2023-07-13T07:08:12;17.63;;;8.85;;
24745;SDS011;12845;52.042;6.838;2023-07-13T07:10:40;18.67;;;9.75;;
24745;SDS011;12845;52.042;6.838;2023-07-13T07:13:05;23.42;;;10.88;;
24745;SDS011;12845;52.042;6.838;2023-07-13T07:15:31;17.20;;;9.98;;
24745;SDS011;12845;52.042;6.838;2023-07-13T07:17:56;20.85;;;11.00;;
24745;SDS011;12845;52.042;6.838;2023-07-13T07:20:22;22.95;;;11.23;;
24745;SDS011;12845;52.042;6.838;2023-07-13T07:22:47;17.50;;;8.75;;
24745;SDS011;12845;52.042;6.838;2023-07-13T07:25:13;21.90;;;9.70;;
24745;SDS011;12845;52.042;6.838;2023-07-13T07:27:38;19.45;;;9.57;;
24745;SDS011;12845;52.042;6.838;2023-07-13T07:30:04;23.55;;;11.05;;
24745;SDS011;12845;52.042;6.838;2023-07-13T07:32:30;17.33;;;9.65;;
24745;SDS011;12845;52.042;6.838;2023-07-13T07:34:59;22.98;;;10.38;;
24745;SDS011;12845;52.042;6.838;2023-07-13T07:37:24;19.83;;;10.20;;
24745;SDS011;12845;52.042;6.838;2023-07-13T07:39:50;18.92;;;10.35;;
24745;SDS011;12845;52.042;6.838;2023-07-13T07:42:15;16.65;;;10.07;;
24745;SDS011;12845;52.042;6.838;2023-07-13T07:44:41;16.10;;;9.95;;
24745;SDS011;12845;52.042;6.838;2023-07-13T07:47:07;22.52;;;10.63;;
24745;SDS011;12845;52.042;6.838;2023-07-13T07:49:33;21.00;;;10.73;;
24745;SDS011;12845;52.042;6.838;2023-07-13T07:51:59;18.83;;;10.45;;
24745;SDS011;12845;52.042;6.838;2023-07-13T07:54:25;24.25;;;11.27;;
24745;SDS011;12845;52.042;6.838;2023-07-13T07:56:50;19.73;;;10.93;;
24745;SDS011;12845;52.042;6.838;2023-07-13T07:59:16;17.67;;;10.10;;
24745;SDS011;12845;52.042;6.838;2023-07-13T08:01:41;23.83;;;10.40;;
24745;SDS011;12845;52.042;6.838;2023-07-13T08:04:08;18.50;;;9.45;;
24745;SDS011;12845;52.042;6.838;2023-07-13T08:06:34;13.95;;;9.00;;
24745;SDS011;12845;52.042;6.838;2023-07-13T08:09:00;19.67;;;10.32;;
24745;SDS011;12845;52.042;6.838;2023-07-13T08:11:26;19.15;;;10.38;;
24745;SDS011;12845;52.042;6.838;2023-07-13T08:13:51;16.10;;;9.40;;
24745;SDS011;12845;52.042;6.838;2023-07-13T08:16:17;20.27;;;9.60;;
24745;SDS011;12845;52.042;6.838;2023-07-13T08:18:42;19.45;;;9.55;;
24745;SDS011;12845;52.042;6.838;2023-07-13T08:21:08;16.13;;;10.20;;
24745;SDS011;12845;52.042;6.838;2023-07-13T08:23:34;21.45;;;9.48;;
24745;SDS011;12845;52.042;6.838;2023-07-13T08:26:00;16.02;;;8.25;;
24745;SDS011;12845;52.042;6.838;2023-07-13T08:28:26;20.33;;;10.07;;
24745;SDS011;12845;52.042;6.838;2023-07-13T08:30:52;20.65;;;10.45;;
24745;SDS011;12845;52.042;6.838;2023-07-13T08:33:18;22.48;;;10.32;;
24745;SDS011;12845;52.042;6.838;2023-07-13T08:35:48;17.92;;;10.07;;
24745;SDS011;12845;52.042;6.838;2023-07-13T08:38:13;19.98;;;10.55;;
24745;SDS011;12845;52.042;6.838;2023-07-13T08:40:40;24.02;;;10.85;;
24745;SDS011;12845;52.042;6.838;2023-07-13T08:43:07;24.10;;;10.88;;
24745;SDS011;12845;52.042;6.838;2023-07-13T08:51:02;22.17;;;10.40;;
24745;SDS011;12845;52.042;6.838;2023-07-13T08:53:45;19.80;;;10.00;;
24745;SDS011;12845;52.042;6.838;2023-07-13T08:56:22;23.70;;;9.77;;
24745;SDS011;12845;52.042;6.838;2023-07-13T08:58:51;21.73;;;10.27;;
24745;SDS011;12845;52.042;6.838;2023-07-13T09:01:23;20.45;;;9.80;;
24745;SDS011;12845;52.042;6.838;2023-07-13T09:03:58;19.65;;;10.48;;
24745;SDS011;12845;52.042;6.838;2023-07-13T09:06:31;22.15;;;9.23;;
24745;SDS011;12845;52.042;6.838;2023-07-13T09:11:56;22.33;;;10.15;;
24745;SDS011;12845;52.042;6.838;2023-07-13T09:14:43;21.00;;;9.13;;
24745;SDS011;12845;52.042;6.838;2023-07-13T09:17:14;20.48;;;8.82;;
24745;SDS011;12845;52.042;6.838;2023-07-13T09:19:42;21.55;;;8.82;;
24745;SDS011;12845;52.042;6.838;2023-07-13T09:22:11;20.13;;;9.23;;
24745;SDS011;12845;52.042;6.838;2023-07-13T09:27:24;22.90;;;9.10;;
24745;SDS011;12845;52.042;6.838;2023-07-13T09:30:09;16.60;;;8.52;;
24745;SDS011;12845;52.042;6.838;2023-07-13T09:32:43;17.95;;;9.25;;
24745;SDS011;12845;52.042;6.838;2023-07-13T09:35:12;18.73;;;8.75;;
24745;SDS011;12845;52.042;6.838;2023-07-13T09:40:20;19.08;;;9.60;;
24745;SDS011;12845;52.042;6.838;2023-07-13T09:42:51;17.77;;;8.65;;
24745;SDS011;12845;52.042;6.838;2023-07-13T09:45:26;15.23;;;8.55;;
24745;SDS011;12845;52.042;6.838;2023-07-13T09:47:58;13.93;;;8.38;;
24745;SDS011;12845;52.042;6.838;2023-07-13T09:50:32;18.67;;;8.13;;
24745;SDS011;12845;52.042;6.838;2023-07-13T09:52:58;17.48;;;7.25;;
24745;SDS011;12845;52.042;6.838;2023-07-13T09:55:30;14.57;;;6.60;;
24745;SDS011;12845;52.042;6.838;2023-07-13T09:58:04;16.23;;;6.43;;
24745;SDS011;12845;52.042;6.838;2023-07-13T10:00:35;12.93;;;6.55;;
24745;SDS011;12845;52.042;6.838;2023-07-13T10:03:03;13.10;;;6.70;;
24745;SDS011;12845;52.042;6.838;2023-07-13T10:05:28;10.45;;;6.72;;
24745;SDS011;12845;52.042;6.838;2023-07-13T10:08:02;12.18;;;6.35;;
24745;SDS011;12845;52.042;6.838;2023-07-13T10:10:28;15.18;;;6.90;;
24745;SDS011;12845;52.042;6.838;2023-07-13T10:12:53;12.50;;;6.47;;
24745;SDS011;12845;52.042;6.838;2023-07-13T10:15:19;11.48;;;6.88;;
24745;SDS011;12845;52.042;6.838;2023-07-13T10:17:46;11.90;;;6.80;;
24745;SDS011;12845;52.042;6.838;2023-07-13T10:20:14;13.10;;;6.40;;
24745;SDS011;12845;52.042;6.838;2023-07-13T10:22:50;12.05;;;7.13;;
24745;SDS011;12845;52.042;6.838;2023-07-13T10:25:21;11.10;;;6.57;;
24745;SDS011;12845;52.042;6.838;2023-07-13T10:32:42;9.93;;;4.68;;
24745;SDS011;12845;52.042;6.838;2023-07-13T10:35:10;9.88;;;5.45;;
24745;SDS011;12845;52.042;6.838;2023-07-13T10:40:29;12.40;;;5.07;;
24745;SDS011;12845;52.042;6.838;2023-07-13T10:43:00;10.23;;;5.47;;
24745;SDS011;12845;52.042;6.838;2023-07-13T10:45:30;10.45;;;5.55;;
24745;SDS011;12845;52.042;6.838;2023-07-13T10:47:59;9.60;;;5.07;;
24745;SDS011;12845;52.042;6.838;2023-07-13T10:50:25;11.90;;;5.00;;
24745;SDS011;12845;52.042;6.838;2023-07-13T10:52:54;9.75;;;4.90;;
24745;SDS011;12845;52.042;6.838;2023-07-13T10:55:35;12.05;;;6.18;;
24745;SDS011;12845;52.042;6.838;2023-07-13T10:58:32;10.57;;;4.80;;
24745;SDS011;12845;52.042;6.838;2023-07-13T11:08:55;13.20;;;5.47;;
24745;SDS011;12845;52.042;6.838;2023-07-13T11:11:37;10.23;;;5.47;;
24745;SDS011;12845;52.042;6.838;2023-07-13T11:14:04;11.02;;;6.50;;
24745;SDS011;12845;52.042;6.838;2023-07-13T11:16:50;15.57;;;6.97;;
24745;SDS011;12845;52.042;6.838;2023-07-13T11:22:01;9.95;;;5.03;;
24745;SDS011;12845;52.042;6.838;2023-07-13T11:24:30;11.13;;;6.40;;
24745;SDS011;12845;52.042;6.838;2023-07-13T11:27:27;13.55;;;6.93;;
24745;SDS011;12845;52.042;6.838;2023-07-13T11:32:38;11.98;;;6.57;;
24745;SDS011;12845;52.042;6.838;2023-07-13T11:35:04;11.13;;;6.03;;
24745;SDS011;12845;52.042;6.838;2023-07-13T11:37:29;9.63;;;5.68;;
24745;SDS011;12845;52.042;6.838;2023-07-13T11:39:56;10.30;;;5.22;;
24745;SDS011;12845;52.042;6.838;2023-07-13T11:42:22;9.73;;;5.88;;
24745;SDS011;12845;52.042;6.838;2023-07-13T11:44:48;11.75;;;6.60;;
24745;SDS011;12845;52.042;6.838;2023-07-13T11:47:20;11.40;;;5.90;;
24745;SDS011;12845;52.042;6.838;2023-07-13T11:49:51;10.02;;;5.60;;
24745;SDS011;12845;52.042;6.838;2023-07-13T11:52:26;10.95;;;6.22;;
24745;SDS011;12845;52.042;6.838;2023-07-13T11:54:59;10.50;;;6.50;;
24745;SDS011;12845;52.042;6.838;2023-07-13T11:57:36;13.70;;;6.60;;
24745;SDS011;12845;52.042;6.838;2023-07-13T12:00:14;8.15;;;5.57;;
24745;SDS011;12845;52.042;6.838;2023-07-13T12:02:43;10.05;;;5.05;;
24745;SDS011;12845;52.042;6.838;2023-07-13T12:05:11;8.32;;;4.10;;
24745;SDS011;12845;52.042;6.838;2023-07-13T12:07:39;8.88;;;5.13;;
24745;SDS011;12845;52.042;6.838;2023-07-13T12:15:01;8.25;;;5.30;;
24745;SDS011;12845;52.042;6.838;2023-07-13T12:17:30;8.10;;;5.32;;
24745;SDS011;12845;52.042;6.838;2023-07-13T12:19:56;9.35;;;5.68;;
24745;SDS011;12845;52.042;6.838;2023-07-13T12:22:24;10.35;;;5.85;;
24745;SDS011;12845;52.042;6.838;2023-07-13T12:24:50;13.75;;;6.22;;
24745;SDS011;12845;52.042;6.838;2023-07-13T12:30:24;10.15;;;5.53;;
24745;SDS011;12845;52.042;6.838;2023-07-13T12:35:23;6.93;;;4.75;;
24745;SDS011;12845;52.042;6.838;2023-07-13T12:37:50;8.15;;;4.93;;
24745;SDS011;12845;52.042;6.838;2023-07-13T12:40:18;6.10;;;3.97;;
24745;SDS011;12845;52.042;6.838;2023-07-13T12:42:47;7.35;;;4.35;;
24745;SDS011;12845;52.042;6.838;2023-07-13T12:45:20;8.55;;;5.55;;
24745;SDS011;12845;52.042;6.838;2023-07-13T12:47:53;7.85;;;5.03;;
24745;SDS011;12845;52.042;6.838;2023-07-13T12:50:24;9.27;;;5.50;;
24745;SDS011;12845;52.042;6.838;2023-07-13T12:53:15;9.57;;;5.22;;
24745;SDS011;12845;52.042;6.838;2023-07-13T12:55:46;9.82;;;5.75;;
24745;SDS011;12845;52.042;6.838;2023-07-13T12:58:27;8.77;;;5.50;;
24745;SDS011;12845;52.042;6.838;2023-07-13T13:01:11;8.13;;;5.70;;
24745;SDS011;12845;52.042;6.838;2023-07-13T13:03:39;9.55;;;5.85;;
24745;SDS011;12845;52.042;6.838;2023-07-13T13:08:40;8.23;;;5.70;;
24745;SDS011;12845;52.042;6.838;2023-07-13T13:11:08;10.75;;;5.75;;
24745;SDS011;12845;52.042;6.838;2023-07-13T13:13:34;10.18;;;6.72;;
24745;SDS011;12845;52.042;6.838;2023-07-13T13:16:20;9.75;;;6.15;;
24745;SDS011;12845;52.042;6.838;2023-07-13T13:18:47;7.35;;;5.30;;
24745;SDS011;12845;52.042;6.838;2023-07-13T13:21:14;7.03;;;4.03;;
24745;SDS011;12845;52.042;6.838;2023-07-13T13:23:40;7.95;;;3.88;;
24745;SDS011;12845;52.042;6.838;2023-07-13T13:26:13;7.75;;;3.88;;
24745;SDS011;12845;52.042;6.838;2023-07-13T13:28:40;5.43;;;3.50;;
24745;SDS011;12845;52.042;6.838;2023-07-13T13:31:10;4.85;;;3.13;;
24745;SDS011;12845;52.042;6.838;2023-07-13T13:33:37;4.75;;;2.83;;
24745;SDS011;12845;52.042;6.838;2023-07-13T13:36:09;5.22;;;2.80;;
24745;SDS011;12845;52.042;6.838;2023-07-13T13:38:38;7.35;;;3.45;;
24745;SDS011;12845;52.042;6.838;2023-07-13T13:41:04;4.47;;;3.40;;
24745;SDS011;12845;52.042;6.838;2023-07-13T13:43:30;6.47;;;3.75;;
24745;SDS011;12845;52.042;6.838;2023-07-13T13:45:58;5.30;;;3.17;;
24745;SDS011;12845;52.042;6.838;2023-07-13T13:48:31;5.72;;;3.60;;
24745;SDS011;12845;52.042;6.838;2023-07-13T13:50:58;8.18;;;5.40;;
24745;SDS011;12845;52.042;6.838;2023-07-13T13:53:25;10.48;;;6.72;;
24745;SDS011;12845;52.042;6.838;2023-07-13T13:55:51;9.88;;;7.30;;
24745;SDS011;12845;52.042;6.838;2023-07-13T13:58:17;12.57;;;7.35;;
24745;SDS011;12845;52.042;6.838;2023-07-13T14:00:43;11.05;;;7.72;;
24745;SDS011;12845;52.042;6.838;2023-07-13T14:03:20;10.77;;;7.95;;
24745;SDS011;12845;52.042;6.838;2023-07-13T14:05:49;12.55;;;7.63;;
24745;SDS011;12845;52.042;6.838;2023-07-13T14:08:23;13.13;;;7.45;;
24745;SDS011;12845;52.042;6.838;2023-07-13T14:10:49;10.50;;;6.88;;
24745;SDS011;12845;52.042;6.838;2023-07-13T14:13:21;13.43;;;7.40;;
24745;SDS011;12845;52.042;6.838;2023-07-13T14:15:52;12.10;;;7.55;;
24745;SDS011;12845;52.042;6.838;2023-07-13T14:18:18;9.70;;;7.03;;
24745;SDS011;12845;52.042;6.838;2023-07-13T14:20:44;11.25;;;7.00;;
24745;SDS011;12845;52.042;6.838;2023-07-13T14:23:14;10.52;;;7.40;;
24745;SDS011;12845;52.042;6.838;2023-07-13T14:25:41;8.27;;;5.22;;
24745;SDS011;12845;52.042;6.838;2023-07-13T14:30:47;6.95;;;4.28;;
24745;SDS011;12845;52.042;6.838;2023-07-13T14:33:13;6.35;;;4.18;;
24745;SDS011;12845;52.042;6.838;2023-07-13T14:35:38;9.30;;;4.28;;
24745;SDS011;12845;52.042;6.838;2023-07-13T14:38:04;5.32;;;4.32;;
24745;SDS011;12845;52.042;6.838;2023-07-13T14:40:31;5.85;;;3.00;;
24745;SDS011;12845;52.042;6.838;2023-07-13T14:42:59;5.03;;;2.92;;
24745;SDS011;12845;52.042;6.838;2023-07-13T14:45:25;5.20;;;2.50;;
24745;SDS011;12845;52.042;6.838;2023-07-13T14:47:51;6.07;;;2.78;;
24745;SDS011;12845;52.042;6.838;2023-07-13T14:50:21;5.93;;;2.60;;
24745;SDS011;12845;52.042;6.838;2023-07-13T14:52:49;5.50;;;2.85;;
24745;SDS011;12845;52.042;6.838;2023-07-13T14:55:16;6.53;;;2.75;;
24745;SDS011;12845;52.042;6.838;2023-07-13T14:57:43;4.00;;;2.60;;
24745;SDS011;12845;52.042;6.838;2023-07-13T15:02:41;7.13;;;3.28;;
24745;SDS011;12845;52.042;6.838;2023-07-13T15:05:16;4.93;;;2.80;;
24745;SDS011;12845;52.042;6.838;2023-07-13T15:07:44;5.22;;;2.70;;
24745;SDS011;12845;52.042;6.838;2023-07-13T15:10:16;10.85;;;3.55;;
24745;SDS011;12845;52.042;6.838;2023-07-13T15:12:44;4.82;;;2.60;;
24745;SDS011;12845;52.042;6.838;2023-07-13T15:15:10;5.63;;;2.70;;
24745;SDS011;12845;52.042;6.838;2023-07-13T15:17:40;6.60;;;3.20;;
24745;SDS011;12845;52.042;6.838;2023-07-13T15:22:53;7.65;;;5.03;;
24745;SDS011;12845;52.042;6.838;2023-07-13T15:25:19;6.25;;;2.95;;
24745;SDS011;12845;52.042;6.838;2023-07-13T15:27:47;5.28;;;2.95;;
24745;SDS011;12845;52.042;6.838;2023-07-13T15:30:13;8.70;;;4.78;;
24745;SDS011;12845;52.042;6.838;2023-07-13T15:32:40;7.07;;;4.68;;
24745;SDS011;12845;52.042;6.838;2023-07-13T15:35:17;8.00;;;3.38;;
24745;SDS011;12845;52.042;6.838;2023-07-13T15:37:46;5.43;;;2.92;;
24745;SDS011;12845;52.042;6.838;2023-07-13T15:40:13;6.28;;;3.38;;
24745;SDS011;12845;52.042;6.838;2023-07-13T15:42:39;4.57;;;2.80;;
24745;SDS011;12845;52.042;6.838;2023-07-13T15:45:16;5.00;;;3.05;;